createdAt,value
2019-04-26T00:00:58.342Z,2.20
2019-04-26T00:02:16.149Z,2.55
2019-04-26T00:03:25.860Z,2.40
2019-04-26T00:04:31.165Z,2.50
2019-04-26T00:05:37.115Z,2.58
2019-04-26T00:06:42.941Z,2.80
2019-04-26T00:07:47.950Z,2.70
2019-04-26T00:08:58.724Z,3.15
2019-04-26T00:10:06.873Z,3.25
2019-04-26T00:11:26.589Z,2.83
2019-04-26T00:12:50.980Z,2.90
2019-04-26T00:14:08.482Z,2.95
2019-04-26T00:15:41.475Z,3.00
2019-04-26T00:17:05.789Z,3.08
2019-04-26T00:18:11.841Z,3.12
2019-04-26T00:19:17.901Z,3.58
2019-04-26T00:20:23.202Z,3.10
2019-04-26T00:21:28.290Z,3.40
2019-04-26T00:22:33.661Z,3.27
2019-04-26T00:23:38.845Z,3.50
2019-04-26T00:24:44.205Z,4.00
2019-04-26T00:25:49.289Z,4.05
2019-04-26T00:26:54.348Z,3.40
2019-04-26T00:27:59.529Z,2.85
2019-04-26T00:29:04.753Z,3.05
2019-04-26T00:30:10.694Z,2.60
2019-04-26T00:31:17.189Z,2.80
2019-04-26T00:32:22.284Z,2.33
2019-04-26T00:33:27.353Z,2.25
2019-04-26T00:34:32.441Z,2.70
2019-04-26T00:35:47.288Z,2.70
2019-04-26T00:36:44.262Z,2.45
2019-04-26T00:37:49.250Z,2.40
2019-04-26T00:38:54.396Z,2.62
2019-04-26T00:39:59.409Z,2.70
2019-04-26T00:41:04.598Z,2.58
2019-04-26T00:42:09.844Z,2.58
2019-04-26T00:43:14.913Z,2.75
2019-04-26T00:44:20.887Z,3.50
2019-04-26T00:45:29.367Z,3.15
2019-04-26T00:46:36.306Z,3.37
2019-04-26T00:47:42.020Z,3.50
2019-04-26T00:48:47.817Z,4.15
2019-04-26T00:49:53.114Z,4.33
2019-04-26T00:50:58.419Z,4.20
2019-04-26T00:52:04.276Z,3.55
2019-04-26T00:53:09.880Z,3.40
2019-04-26T00:54:15.504Z,3.77
2019-04-26T00:55:21.925Z,3.05
2019-04-26T00:56:27.780Z,3.62
2019-04-26T00:57:34.573Z,3.10
2019-04-26T00:58:40.928Z,2.80
2019-04-26T00:59:46.911Z,2.30
2019-04-26T01:00:53.687Z,2.55
2019-04-26T01:02:04.794Z,2.50
2019-04-26T01:03:09.857Z,2.35
2019-04-26T01:04:16.052Z,2.30
2019-04-26T01:05:21.707Z,2.27
2019-04-26T01:06:28.847Z,2.37
2019-04-26T01:07:33.915Z,2.17
2019-04-26T01:08:39.142Z,2.70
2019-04-26T01:09:44.143Z,2.45
2019-04-26T01:10:49.285Z,2.30
2019-04-26T01:11:54.401Z,2.10
2019-04-26T01:12:59.440Z,2.30
2019-04-26T01:14:04.715Z,2.27
2019-04-26T01:15:09.785Z,2.52
2019-04-26T01:16:15.862Z,2.30
2019-04-26T01:17:22.394Z,2.52
2019-04-26T01:18:27.405Z,2.30
2019-04-26T01:19:33.242Z,2.25
2019-04-26T01:20:40.200Z,2.30
2019-04-26T01:21:50.773Z,2.77
2019-04-26T01:22:58.718Z,2.40
2019-04-26T01:24:05.054Z,2.42
2019-04-26T01:25:32.761Z,2.75
2019-04-26T01:26:39.803Z,2.40
2019-04-26T01:27:45.892Z,2.60
2019-04-26T01:29:00.880Z,2.10
2019-04-26T01:30:08.956Z,2.10
2019-04-26T01:31:14.910Z,2.62
2019-04-26T01:32:22.082Z,2.40
2019-04-26T01:33:28.168Z,2.22
2019-04-26T01:34:34.372Z,2.58
2019-04-26T01:35:39.775Z,2.42
2019-04-26T01:36:46.564Z,2.58
2019-04-26T01:37:52.348Z,2.40
2019-04-26T01:39:01.262Z,2.55
2019-04-26T01:40:11.450Z,2.30
2019-04-26T01:41:24.519Z,2.50
2019-04-26T01:42:47.304Z,2.33
2019-04-26T01:44:17.157Z,2.37
2019-04-26T01:45:37.517Z,2.20
2019-04-26T01:46:45.564Z,2.47
2019-04-26T01:47:53.780Z,2.80
2019-04-26T01:49:01.762Z,2.87
2019-04-26T01:50:07.823Z,2.45
2019-04-26T01:51:17.301Z,2.30
2019-04-26T01:52:22.866Z,3.02
2019-04-26T01:53:28.993Z,3.08
2019-04-26T01:54:39.860Z,2.30
2019-04-26T01:55:44.884Z,2.55
2019-04-26T01:56:53.049Z,2.50
2019-04-26T01:58:00.623Z,1.92
2019-04-26T01:59:07.921Z,2.35
2019-04-26T02:00:39.066Z,3.20
2019-04-26T02:02:00.905Z,2.37
2019-04-26T02:03:14.183Z,2.17
2019-04-26T02:04:19.323Z,2.10
2019-04-26T02:05:25.983Z,2.05
2019-04-26T02:06:34.851Z,2.07
2019-04-26T02:07:41.515Z,2.20
2019-04-26T02:08:46.580Z,2.00
2019-04-26T02:09:51.574Z,1.90
2019-04-26T02:10:56.557Z,2.20
2019-04-26T02:12:02.178Z,2.02
2019-04-26T02:13:07.224Z,2.00
2019-04-26T02:14:12.657Z,2.30
2019-04-26T02:15:20.525Z,1.98
2019-04-26T02:16:25.608Z,1.92
2019-04-26T02:17:31.439Z,1.65
2019-04-26T02:18:36.495Z,1.85
2019-04-26T02:19:41.489Z,2.10
2019-04-26T02:21:19.309Z,1.70
2019-04-26T02:22:30.410Z,2.20
2019-04-26T02:23:50.147Z,1.90
2019-04-26T02:24:55.402Z,1.80
2019-04-26T02:26:19.464Z,2.17
2019-04-26T02:27:28.258Z,1.85
2019-04-26T02:28:33.322Z,2.10
2019-04-26T02:29:38.387Z,1.98
2019-04-26T02:30:43.476Z,1.75
2019-04-26T02:31:53.444Z,1.80
2019-04-26T02:32:58.705Z,2.00
2019-04-26T02:34:04.557Z,2.15
2019-04-26T02:35:09.843Z,1.72
2019-04-26T02:36:15.115Z,1.82
2019-04-26T02:37:20.113Z,2.40
2019-04-26T02:38:25.803Z,1.60
2019-04-26T02:39:38.508Z,2.33
2019-04-26T02:40:44.461Z,1.80
2019-04-26T02:41:51.787Z,1.77
2019-04-26T02:42:56.828Z,1.90
2019-04-26T02:44:05.546Z,1.70
2019-04-26T02:45:48.581Z,2.15
2019-04-26T02:47:28.933Z,1.65
2019-04-26T02:49:02.548Z,1.72
2019-04-26T02:50:13.875Z,1.55
2019-04-26T02:51:23.001Z,1.90
2019-04-26T02:52:44.133Z,1.80
2019-04-26T02:53:57.135Z,1.57
2019-04-26T02:55:13.185Z,1.82
2019-04-26T02:56:28.230Z,1.70
2019-04-26T02:57:50.742Z,1.90
2019-04-26T02:59:37.710Z,1.98
2019-04-26T03:00:42.492Z,1.70
2019-04-26T03:01:50.420Z,2.27
2019-04-26T03:03:03.889Z,1.70
2019-04-26T03:04:09.009Z,1.85
2019-04-26T03:05:14.187Z,1.95
2019-04-26T03:06:19.368Z,1.55
2019-04-26T03:07:39.121Z,1.70
2019-04-26T03:08:44.619Z,2.00
2019-04-26T03:09:52.147Z,1.90
2019-04-26T03:11:04.094Z,1.70
2019-04-26T03:12:13.642Z,1.50
2019-04-26T03:13:43.560Z,1.72
2019-04-26T03:15:14.590Z,1.60
2019-04-26T03:16:41.336Z,2.37
2019-04-26T03:18:12.684Z,1.87
2019-04-26T03:19:34.141Z,1.60
2019-04-26T03:20:42.650Z,1.90
2019-04-26T03:21:57.314Z,1.90
2019-04-26T03:23:19.770Z,2.00
2019-04-26T03:24:32.937Z,1.82
2019-04-26T03:26:06.485Z,1.90
2019-04-26T03:27:28.357Z,1.82
2019-04-26T03:28:43.947Z,2.00
2019-04-26T03:30:20.026Z,1.92
2019-04-26T03:31:42.830Z,1.85
2019-04-26T03:33:24.056Z,1.90
2019-04-26T03:34:50.790Z,1.80
2019-04-26T03:36:30.152Z,1.80
2019-04-26T03:37:53.357Z,1.62
2019-04-26T03:39:24.013Z,1.90
2019-04-26T03:41:01.845Z,1.75
2019-04-26T03:42:37.049Z,2.00
2019-04-26T03:44:20.015Z,1.90
2019-04-26T03:45:53.750Z,1.70
2019-04-26T03:47:02.821Z,1.90
2019-04-26T03:48:23.517Z,2.00
2019-04-26T03:49:37.988Z,2.30
2019-04-26T03:50:54.270Z,2.00
2019-04-26T03:52:18.484Z,2.20
2019-04-26T03:53:55.785Z,1.80
2019-04-26T03:55:04.897Z,2.08
2019-04-26T03:56:56.899Z,2.05
2019-04-26T03:58:06.696Z,1.87
2019-04-26T03:59:49.093Z,1.98
2019-04-26T04:00:59.685Z,1.65
2019-04-26T04:02:30.073Z,1.87
2019-04-26T04:04:00.761Z,2.15
2019-04-26T04:05:20.653Z,1.80
2019-04-26T04:06:29.941Z,2.15
2019-04-26T04:07:45.191Z,1.95
2019-04-26T04:08:50.345Z,1.50
2019-04-26T04:10:05.112Z,1.90
2019-04-26T04:11:13.377Z,2.00
2019-04-26T04:12:31.501Z,2.05
2019-04-26T04:13:50.521Z,2.30
2019-04-26T04:15:03.879Z,2.50
2019-04-26T04:16:48.985Z,2.02
2019-04-26T04:18:00.033Z,2.20
2019-04-26T04:19:12.108Z,2.22
2019-04-26T04:20:38.963Z,2.37
2019-04-26T04:21:57.229Z,2.05
2019-04-26T04:23:12.888Z,2.25
2019-04-26T04:24:31.898Z,2.20
2019-04-26T04:25:42.343Z,2.37
2019-04-26T04:27:05.900Z,2.08
2019-04-26T04:28:49.900Z,1.80
2019-04-26T04:30:19.689Z,2.00
2019-04-26T04:31:31.686Z,2.02
2019-04-26T04:32:49.862Z,2.10
2019-04-26T04:34:23.854Z,2.00
2019-04-26T04:35:32.533Z,2.27
2019-04-26T04:36:48.864Z,2.17
2019-04-26T04:38:09.180Z,1.92
2019-04-26T04:39:14.202Z,1.95
2019-04-26T04:40:42.659Z,2.30
2019-04-26T04:42:22.613Z,2.20
2019-04-26T04:43:48.797Z,2.10
2019-04-26T04:45:22.322Z,2.10
2019-04-26T04:47:35.493Z,1.92
2019-04-26T04:49:08.202Z,2.00
2019-04-26T04:50:31.502Z,2.10
2019-04-26T04:52:10.049Z,1.90
2019-04-26T04:53:49.714Z,1.95
2019-04-26T04:55:07.749Z,2.10
2019-04-26T04:56:43.605Z,2.20
2019-04-26T04:58:07.106Z,2.10
2019-04-26T04:59:18.695Z,1.80
2019-04-26T05:00:45.048Z,2.17
2019-04-26T05:02:24.802Z,1.90
2019-04-26T05:03:43.589Z,2.60
2019-04-26T05:05:35.543Z,2.35
2019-04-26T05:07:30.560Z,1.90
2019-04-26T05:08:52.980Z,2.00
2019-04-26T05:10:20.002Z,2.30
2019-04-26T05:11:38.085Z,1.92
2019-04-26T05:13:03.064Z,1.90
2019-04-26T05:14:50.101Z,2.00
2019-04-26T05:16:33.028Z,2.10
2019-04-26T05:18:10.322Z,2.05
2019-04-26T05:20:04.433Z,2.33
2019-04-26T05:21:31.885Z,1.80
2019-04-26T05:22:57.551Z,1.70
2019-04-26T05:24:27.028Z,1.80
2019-04-26T05:26:49.381Z,1.98
2019-04-26T05:28:19.648Z,1.90
2019-04-26T05:30:19.945Z,1.75
2019-04-26T05:31:54.314Z,2.00
2019-04-26T05:33:30.498Z,1.98
2019-04-26T05:34:47.915Z,2.25
2019-04-26T05:36:11.110Z,2.35
2019-04-26T05:38:04.702Z,2.77
2019-04-26T05:39:28.952Z,2.47
2019-04-26T05:41:30.293Z,1.90
2019-04-26T05:43:18.149Z,2.45
2019-04-26T05:45:15.295Z,2.55
2019-04-26T05:46:53.960Z,2.40
2019-04-26T05:48:34.252Z,1.75
2019-04-26T05:50:13.783Z,2.15
2019-04-26T05:51:46.993Z,1.98
2019-04-26T05:53:48.705Z,2.60
2019-04-26T05:55:40.638Z,2.55
2019-04-26T05:56:59.133Z,2.40
2019-04-26T05:58:31.908Z,2.70
2019-04-26T06:00:28.412Z,2.60
2019-04-26T06:02:43.681Z,2.95
2019-04-26T06:04:28.009Z,2.80
2019-04-26T06:06:20.335Z,2.70
2019-04-26T06:08:05.024Z,3.17
2019-04-26T06:10:27.936Z,2.95
2019-04-26T06:11:51.455Z,3.17
2019-04-26T06:13:43.706Z,3.60
2019-04-26T06:15:44.039Z,3.72
2019-04-26T06:17:20.559Z,3.65
2019-04-26T06:18:44.352Z,3.30
2019-04-26T06:20:23.416Z,3.17
2019-04-26T06:21:35.219Z,2.65
2019-04-26T06:22:55.274Z,2.90
2019-04-26T06:24:11.892Z,2.30
2019-04-26T06:25:31.005Z,2.50
2019-04-26T06:27:12.173Z,2.30
2019-04-26T06:28:45.364Z,2.20
2019-04-26T06:30:18.492Z,2.05
2019-04-26T06:31:35.987Z,2.20
2019-04-26T06:33:10.288Z,2.50
2019-04-26T06:34:23.053Z,2.25
2019-04-26T06:35:29.046Z,1.90
2019-04-26T06:36:47.605Z,2.35
2019-04-26T06:38:54.333Z,2.40
2019-04-26T06:40:18.279Z,2.47
2019-04-26T06:42:18.323Z,2.00
2019-04-26T06:43:28.637Z,2.30
2019-04-26T06:45:06.828Z,2.10
2019-04-26T06:47:11.317Z,1.90
2019-04-26T06:48:34.016Z,1.92
2019-04-26T06:50:21.976Z,1.65
2019-04-26T06:51:33.886Z,1.60
2019-04-26T06:52:49.421Z,1.92
2019-04-26T06:54:13.610Z,1.95
2019-04-26T06:55:49.123Z,1.50
2019-04-26T06:57:25.140Z,1.35
2019-04-26T06:59:03.476Z,1.62
2019-04-26T07:00:16.670Z,1.30
2019-04-26T07:01:34.836Z,1.70
2019-04-26T07:03:13.825Z,2.00
2019-04-26T07:04:29.537Z,1.10
2019-04-26T07:05:37.865Z,1.30
2019-04-26T07:07:07.917Z,1.62
2019-04-26T07:08:31.333Z,1.40
2019-04-26T07:09:50.486Z,1.80
2019-04-26T07:11:44.417Z,1.70
2019-04-26T07:13:24.625Z,1.32
2019-04-26T07:15:28.434Z,1.85
2019-04-26T07:17:07.799Z,1.72
2019-04-26T07:18:56.200Z,1.30
2019-04-26T07:20:29.436Z,1.80
2019-04-26T07:22:15.547Z,1.50
2019-04-26T07:24:04.196Z,1.65
2019-04-26T07:25:43.049Z,1.80
2019-04-26T07:27:15.372Z,1.85
2019-04-26T07:28:45.685Z,1.70
2019-04-26T07:30:30.435Z,2.17
2019-04-26T07:31:46.372Z,1.85
2019-04-26T07:33:39.528Z,1.37
2019-04-26T07:35:14.846Z,1.80
2019-04-26T07:36:57.357Z,1.80
2019-04-26T07:39:30.328Z,2.27
2019-04-26T07:40:58.955Z,1.77
2019-04-26T07:42:47.220Z,2.33
2019-04-26T07:44:28.737Z,1.90
2019-04-26T07:46:38.963Z,2.20
2019-04-26T07:48:23.746Z,2.25
2019-04-26T07:50:24.914Z,2.12
2019-04-26T07:52:13.353Z,2.30
2019-04-26T07:53:47.696Z,2.50
2019-04-26T07:55:21.426Z,2.02
2019-04-26T07:56:38.432Z,1.77
2019-04-26T07:58:18.386Z,2.15
2019-04-26T08:00:08.571Z,1.80
2019-04-26T08:01:35.424Z,1.90
2019-04-26T08:03:09.184Z,1.90
2019-04-26T08:04:20.207Z,1.77
2019-04-26T08:05:40.418Z,1.80
2019-04-26T08:06:57.118Z,1.65
2019-04-26T08:08:06.918Z,1.45
2019-04-26T08:09:24.823Z,1.60
2019-04-26T08:10:23.056Z,1.60
2019-04-26T08:11:42.781Z,1.22
2019-04-26T08:12:54.027Z,1.65
2019-04-26T08:14:24.859Z,2.10
2019-04-26T08:15:53.327Z,1.37
2019-04-26T08:17:41.942Z,1.32
2019-04-26T08:18:56.051Z,1.20
2019-04-26T08:20:13.968Z,1.20
2019-04-26T08:21:31.509Z,1.70
2019-04-26T08:22:37.447Z,1.40
2019-04-26T08:24:12.213Z,1.55
2019-04-26T08:25:19.408Z,1.50
2019-04-26T08:26:26.345Z,1.50
2019-04-26T08:27:33.772Z,1.70
2019-04-26T08:28:41.277Z,1.47
2019-04-26T08:29:49.132Z,1.05
2019-04-26T08:30:57.162Z,1.40
2019-04-26T08:32:06.997Z,1.60
2019-04-26T08:33:16.658Z,1.62
2019-04-26T08:34:28.514Z,1.50
2019-04-26T08:35:31.332Z,1.45
2019-04-26T08:36:44.920Z,1.30
2019-04-26T08:37:54.582Z,1.30
2019-04-26T08:39:01.714Z,1.10
2019-04-26T08:40:09.363Z,1.30
2019-04-26T08:41:15.498Z,1.50
2019-04-26T08:42:24.704Z,1.37
2019-04-26T08:44:03.508Z,1.20
2019-04-26T08:45:18.244Z,1.27
2019-04-26T08:46:36.152Z,1.30
2019-04-26T08:47:55.534Z,1.30
2019-04-26T08:49:24.809Z,1.32
2019-04-26T08:50:34.380Z,1.30
2019-04-26T08:51:40.405Z,0.93
2019-04-26T08:52:48.772Z,1.40
2019-04-26T08:53:56.723Z,1.15
2019-04-26T08:55:03.853Z,1.35
2019-04-26T08:56:11.755Z,1.50
2019-04-26T08:57:18.313Z,1.20
2019-04-26T08:58:26.501Z,1.50
2019-04-26T08:59:35.629Z,1.27
2019-04-26T09:00:54.267Z,1.17
2019-04-26T09:02:21.265Z,1.00
2019-04-26T09:03:39.602Z,1.20
2019-04-26T09:04:55.113Z,1.40
2019-04-26T09:06:21.595Z,1.17
2019-04-26T09:07:30.435Z,1.20
2019-04-26T09:08:39.349Z,1.35
2019-04-26T09:09:57.037Z,1.02
2019-04-26T09:10:57.781Z,1.17
2019-04-26T09:12:08.146Z,1.32
2019-04-26T09:13:17.622Z,1.15
2019-04-26T09:14:24.496Z,1.17
2019-04-26T09:16:00.155Z,1.10
2019-04-26T09:17:05.632Z,1.40
2019-04-26T09:18:10.759Z,1.40
2019-04-26T09:19:16.007Z,1.02
2019-04-26T09:20:28.728Z,1.10
2019-04-26T09:21:34.878Z,1.07
2019-04-26T09:22:49.293Z,1.05
2019-04-26T09:24:21.054Z,1.37
2019-04-26T09:25:33.715Z,1.30
2019-04-26T09:26:55.957Z,1.20
2019-04-26T09:28:22.816Z,1.32
2019-04-26T09:29:32.139Z,1.07
2019-04-26T09:30:51.770Z,1.00
2019-04-26T09:32:00.318Z,1.37
2019-04-26T09:33:09.336Z,1.20
2019-04-26T09:34:16.016Z,1.17
2019-04-26T09:35:21.233Z,1.10
2019-04-26T09:36:26.659Z,1.00
2019-04-26T09:37:31.806Z,1.37
2019-04-26T09:38:36.922Z,1.10
2019-04-26T09:39:43.426Z,1.00
2019-04-26T09:40:52.450Z,1.12
2019-04-26T09:42:01.232Z,1.10
2019-04-26T09:43:22.216Z,1.10
2019-04-26T09:44:32.619Z,1.32
2019-04-26T09:45:59.473Z,1.10
2019-04-26T09:47:22.041Z,1.50
2019-04-26T09:48:46.097Z,1.15
2019-04-26T09:50:25.077Z,1.20
2019-04-26T09:54:15.301Z,1.10
2019-04-26T09:55:35.433Z,0.90
2019-04-26T09:56:50.887Z,1.40
2019-04-26T09:58:08.825Z,1.40
2019-04-26T09:59:25.270Z,1.07
2019-04-26T10:00:44.159Z,1.17
2019-04-26T10:02:00.325Z,1.20
2019-04-26T10:03:16.768Z,1.20
2019-04-26T10:04:34.693Z,1.30
2019-04-26T10:05:52.039Z,1.00
2019-04-26T10:07:09.719Z,1.37
2019-04-26T10:08:26.536Z,1.27
2019-04-26T10:09:43.823Z,1.40
2019-04-26T10:11:00.421Z,1.25
2019-04-26T10:14:12.312Z,1.10
2019-04-26T10:15:50.779Z,1.30
2019-04-26T10:17:22.019Z,1.40
2019-04-26T10:18:40.330Z,1.17
2019-04-26T10:19:58.334Z,1.00
2019-04-26T10:21:15.012Z,1.30
2019-04-26T10:22:32.725Z,1.27
2019-04-26T10:23:50.011Z,1.32
2019-04-26T10:25:08.101Z,1.00
2019-04-26T10:26:28.140Z,1.37
2019-04-26T10:27:43.930Z,1.10
2019-04-26T10:29:00.385Z,1.15
2019-04-26T10:30:17.541Z,1.40
2019-04-26T10:31:34.172Z,1.07
2019-04-26T10:32:50.854Z,0.90
2019-04-26T10:34:11.806Z,0.95
2019-04-26T10:35:26.740Z,1.30
2019-04-26T10:36:43.203Z,1.00
2019-04-26T10:37:59.755Z,1.25
2019-04-26T10:39:17.980Z,1.00
2019-04-26T10:40:35.592Z,1.40
2019-04-26T10:41:52.699Z,1.30
2019-04-26T10:43:09.793Z,1.15
2019-04-26T10:44:27.978Z,1.35
2019-04-26T10:45:45.906Z,1.20
2019-04-26T10:47:10.195Z,1.30
2019-04-26T10:48:26.726Z,1.02
2019-04-26T10:49:43.073Z,0.90
2019-04-26T10:51:03.333Z,0.80
2019-04-26T10:52:37.538Z,0.90
2019-04-26T10:56:02.619Z,1.00
2019-04-26T10:59:31.817Z,0.98
2019-04-26T11:00:55.797Z,1.35
2019-04-26T11:02:15.064Z,0.88
2019-04-26T11:03:31.804Z,0.90
2019-04-26T11:04:48.286Z,1.00
2019-04-26T11:06:05.155Z,1.10
2019-04-26T11:07:21.649Z,1.20
2019-04-26T11:08:38.883Z,1.10
2019-04-26T11:09:56.014Z,1.22
2019-04-26T11:11:12.494Z,1.00
2019-04-26T11:12:29.096Z,1.10
2019-04-26T11:13:45.922Z,1.57
2019-04-26T11:15:02.994Z,0.90
2019-04-26T11:16:20.049Z,1.00
2019-04-26T11:17:36.485Z,0.65
2019-04-26T11:18:53.138Z,0.90
2019-04-26T11:20:11.964Z,1.20
2019-04-26T11:21:29.006Z,1.02
2019-04-26T11:22:45.665Z,1.07
2019-04-26T11:24:02.238Z,1.20
2019-04-26T11:25:18.834Z,1.20
2019-04-26T11:26:36.244Z,1.07
2019-04-26T11:27:52.858Z,1.02
2019-04-26T11:29:09.589Z,1.02
2019-04-26T11:30:26.336Z,1.12
2019-04-26T11:31:43.109Z,1.20
2019-04-26T11:33:00.303Z,1.10
2019-04-26T11:34:19.275Z,0.98
2019-04-26T11:35:33.265Z,1.05
2019-04-26T11:36:37.669Z,0.80
2019-04-26T11:37:46.201Z,0.98
2019-04-26T11:38:49.949Z,1.00
2019-04-26T11:39:55.054Z,0.90
2019-04-26T11:41:06.418Z,0.93
2019-04-26T11:42:08.030Z,0.80
2019-04-26T11:43:15.817Z,0.80
2019-04-26T11:44:23.300Z,1.10
2019-04-26T11:45:28.730Z,0.90
2019-04-26T11:46:44.180Z,1.10
2019-04-26T11:47:49.082Z,0.80
2019-04-26T11:48:58.548Z,0.80
2019-04-26T11:49:55.421Z,0.65
2019-04-26T11:51:00.594Z,0.80
2019-04-26T11:52:05.616Z,0.70
2019-04-26T11:53:11.278Z,0.60
2019-04-26T11:54:16.921Z,0.60
2019-04-26T11:55:25.341Z,0.70
2019-04-26T11:56:30.383Z,0.80
2019-04-26T11:57:35.583Z,1.12
2019-04-26T11:58:40.694Z,0.80
2019-04-26T11:59:45.823Z,0.60
2019-04-26T12:00:55.953Z,0.80
2019-04-26T12:02:01.126Z,0.65
2019-04-26T12:03:06.278Z,0.72
2019-04-26T12:04:37.593Z,0.70
2019-04-26T12:06:05.553Z,0.80
2019-04-26T12:07:19.869Z,0.68
2019-04-26T12:08:41.088Z,0.80
2019-04-26T12:09:47.451Z,0.68
2019-04-26T12:10:52.585Z,0.60
2019-04-26T12:12:04.552Z,0.70
2019-04-26T12:13:05.990Z,0.70
2019-04-26T12:14:20.025Z,0.60
2019-04-26T12:15:29.708Z,0.60
2019-04-26T12:16:26.165Z,0.70
2019-04-26T12:17:35.194Z,0.80
2019-04-26T12:18:40.291Z,0.95
2019-04-26T12:19:48.184Z,0.68
2019-04-26T12:20:51.935Z,0.90
2019-04-26T12:21:58.046Z,0.80
2019-04-26T12:23:03.271Z,0.70
2019-04-26T12:24:08.432Z,0.60
2019-04-26T12:25:13.597Z,0.70
2019-04-26T12:26:21.592Z,0.60
2019-04-26T12:27:26.548Z,0.70
2019-04-26T12:28:32.547Z,0.70
2019-04-26T12:29:37.584Z,0.70
2019-04-26T12:30:42.761Z,0.72
2019-04-26T12:31:47.828Z,0.60
2019-04-26T12:32:53.051Z,0.75
2019-04-26T12:33:58.200Z,0.70
2019-04-26T12:35:04.575Z,0.72
2019-04-26T12:36:13.333Z,0.80
2019-04-26T12:37:20.018Z,0.68
2019-04-26T12:38:24.246Z,0.80
2019-04-26T12:39:32.385Z,0.70
2019-04-26T12:40:37.178Z,0.62
2019-04-26T12:41:42.465Z,0.80
2019-04-26T12:42:48.382Z,0.70
2019-04-26T12:43:54.466Z,0.75
2019-04-26T12:45:16.692Z,0.80
2019-04-26T12:46:36.766Z,0.78
2019-04-26T12:47:45.628Z,0.70
2019-04-26T12:48:51.317Z,0.70
2019-04-26T12:49:58.855Z,0.75
2019-04-26T12:51:03.500Z,0.80
2019-04-26T12:52:08.658Z,0.75
2019-04-26T12:53:13.944Z,0.80
2019-04-26T12:54:19.124Z,0.70
2019-04-26T12:55:24.324Z,0.78
2019-04-26T12:56:31.301Z,0.80
2019-04-26T12:57:40.330Z,0.90
2019-04-26T12:58:45.641Z,0.70
2019-04-26T12:59:49.944Z,0.80
2019-04-26T13:00:55.133Z,1.10
2019-04-26T13:02:05.814Z,0.70
2019-04-26T13:03:19.440Z,0.70
2019-04-26T13:04:14.054Z,1.10
2019-04-26T13:05:20.538Z,0.90
2019-04-26T13:06:27.768Z,0.95
2019-04-26T13:07:32.921Z,0.82
2019-04-26T13:08:38.127Z,0.70
2019-04-26T13:09:57.211Z,0.72
2019-04-26T13:11:19.844Z,0.70
2019-04-26T13:12:33.305Z,0.80
2019-04-26T13:13:53.624Z,0.70
2019-04-26T13:15:35.833Z,0.80
2019-04-26T13:17:04.608Z,0.60
2019-04-26T13:18:11.261Z,0.80
2019-04-26T13:19:19.898Z,0.95
2019-04-26T13:20:24.350Z,0.80
2019-04-26T13:21:33.132Z,0.70
2019-04-26T13:22:45.962Z,0.62
2019-04-26T13:23:43.966Z,0.75
2019-04-26T13:24:49.070Z,0.93
2019-04-26T13:25:55.484Z,1.00
2019-04-26T13:27:01.274Z,0.82
2019-04-26T13:28:06.540Z,0.90
2019-04-26T13:29:11.652Z,0.55
2019-04-26T13:30:16.881Z,0.80
2019-04-26T13:31:22.326Z,0.90
2019-04-26T13:32:28.567Z,0.80
2019-04-26T13:33:33.626Z,0.72
2019-04-26T13:34:38.721Z,0.82
2019-04-26T13:35:46.721Z,1.00
2019-04-26T13:36:50.681Z,0.80
2019-04-26T13:37:55.727Z,0.90
2019-04-26T13:39:01.220Z,0.80
2019-04-26T13:40:07.981Z,0.70
2019-04-26T13:41:13.181Z,0.80
2019-04-26T13:42:18.693Z,0.70
2019-04-26T13:43:27.065Z,1.15
2019-04-26T13:44:48.720Z,0.90
2019-04-26T13:46:21.767Z,0.80
2019-04-26T13:47:48.994Z,0.93
2019-04-26T13:49:14.217Z,0.70
2019-04-26T13:50:28.339Z,0.75
2019-04-26T13:51:34.501Z,0.90
2019-04-26T13:52:39.653Z,1.10
2019-04-26T13:53:44.856Z,0.90
2019-04-26T13:54:51.232Z,1.00
2019-04-26T13:55:58.316Z,0.90
2019-04-26T13:57:06.192Z,1.00
2019-04-26T13:58:11.021Z,0.90
2019-04-26T13:59:16.176Z,0.80
2019-04-26T14:00:28.361Z,0.85
2019-04-26T14:01:33.633Z,1.35
2019-04-26T14:02:38.769Z,0.80
2019-04-26T14:03:43.891Z,0.62
2019-04-26T14:04:48.977Z,0.80
2019-04-26T14:05:54.040Z,0.80
2019-04-26T14:06:59.147Z,0.88
2019-04-26T14:08:04.314Z,0.98
2019-04-26T14:09:11.262Z,0.70
2019-04-26T14:10:16.585Z,1.00
2019-04-26T14:11:28.082Z,1.10
2019-04-26T14:12:28.480Z,0.70
2019-04-26T14:13:33.616Z,0.80
2019-04-26T14:14:38.808Z,0.80
2019-04-26T14:15:48.220Z,0.90
2019-04-26T14:16:52.004Z,0.80
2019-04-26T14:18:00.320Z,0.82
2019-04-26T14:19:04.325Z,0.90
2019-04-26T14:20:09.431Z,0.80
2019-04-26T14:21:14.716Z,0.75
2019-04-26T14:22:21.769Z,0.75
2019-04-26T14:23:49.494Z,1.10
2019-04-26T14:24:58.648Z,0.90
2019-04-26T14:26:15.387Z,0.70
2019-04-26T14:27:30.547Z,0.70
2019-04-26T14:28:35.623Z,0.78
2019-04-26T14:29:40.641Z,0.65
2019-04-26T14:30:45.768Z,0.90
2019-04-26T14:31:52.947Z,0.70
2019-04-26T14:32:58.836Z,0.75
2019-04-26T14:34:05.390Z,0.70
2019-04-26T14:35:14.955Z,0.70
2019-04-26T14:36:18.619Z,0.70
2019-04-26T14:37:23.870Z,0.72
2019-04-26T14:38:35.643Z,0.80
2019-04-26T14:39:49.600Z,0.80
2019-04-26T14:40:42.991Z,0.82
2019-04-26T14:41:52.641Z,0.75
2019-04-26T14:43:06.381Z,0.80
2019-04-26T14:44:14.748Z,0.80
2019-04-26T14:45:22.399Z,0.70
2019-04-26T14:46:16.716Z,0.82
2019-04-26T14:47:21.831Z,0.60
2019-04-26T14:48:35.775Z,0.60
2019-04-26T14:49:39.122Z,0.70
2019-04-26T14:50:40.515Z,0.70
2019-04-26T14:51:47.017Z,0.70
2019-04-26T14:52:52.643Z,0.70
2019-04-26T14:53:57.720Z,0.60
2019-04-26T14:55:04.553Z,0.70
2019-04-26T14:56:09.756Z,0.88
2019-04-26T14:57:21.092Z,0.70
2019-04-26T14:58:23.851Z,0.75
2019-04-26T14:59:52.723Z,0.70
2019-04-26T15:01:00.130Z,0.70
2019-04-26T15:02:14.385Z,0.80
2019-04-26T15:03:28.108Z,0.70
2019-04-26T15:04:40.269Z,0.70
2019-04-26T15:06:04.411Z,0.75
2019-04-26T15:07:09.525Z,0.70
2019-04-26T15:08:14.644Z,0.80
2019-04-26T15:09:20.276Z,1.20
2019-04-26T15:10:44.019Z,1.00
2019-04-26T15:11:52.761Z,0.80
2019-04-26T15:12:52.691Z,0.80
2019-04-26T15:13:55.056Z,0.72
2019-04-26T15:15:00.177Z,1.15
2019-04-26T15:16:10.516Z,0.95
2019-04-26T15:17:12.572Z,0.88
2019-04-26T15:18:19.411Z,0.93
2019-04-26T15:19:24.545Z,1.00
2019-04-26T15:20:29.725Z,1.10
2019-04-26T15:21:34.733Z,1.00
2019-04-26T15:22:42.857Z,0.80
2019-04-26T15:23:46.718Z,0.75
2019-04-26T15:24:52.309Z,0.88
2019-04-26T15:25:58.597Z,0.88
2019-04-26T15:27:03.880Z,1.12
2019-04-26T15:28:12.062Z,0.90
2019-04-26T15:29:15.944Z,0.93
2019-04-26T15:30:22.039Z,0.90
2019-04-26T15:31:28.032Z,0.80
2019-04-26T15:32:35.242Z,0.80
2019-04-26T15:33:44.151Z,0.80
2019-04-26T15:34:46.951Z,0.88
2019-04-26T15:35:52.239Z,0.70
2019-04-26T15:36:57.525Z,0.90
2019-04-26T15:38:02.628Z,1.17
2019-04-26T15:39:19.911Z,0.80
2019-04-26T15:40:40.457Z,0.90
2019-04-26T15:41:56.269Z,1.00
2019-04-26T15:43:14.214Z,1.30
2019-04-26T15:44:28.327Z,1.12
2019-04-26T15:45:47.280Z,0.80
2019-04-26T15:47:13.166Z,0.80
2019-04-26T15:48:37.601Z,1.02
2019-04-26T15:50:09.848Z,0.80
2019-04-26T15:51:12.600Z,1.10
2019-04-26T15:52:17.707Z,1.00
2019-04-26T15:53:23.947Z,0.90
2019-04-26T15:54:29.167Z,1.20
2019-04-26T15:55:39.915Z,0.90
2019-04-26T15:56:41.068Z,0.90
2019-04-26T15:57:46.246Z,1.20
2019-04-26T15:58:52.333Z,1.12
2019-04-26T15:59:58.131Z,0.80
2019-04-26T16:01:06.748Z,0.80
2019-04-26T16:02:12.450Z,1.00
2019-04-26T16:03:17.706Z,0.90
2019-04-26T16:04:24.059Z,1.00
2019-04-26T16:05:30.780Z,1.00
2019-04-26T16:06:37.296Z,1.25
2019-04-26T16:07:43.133Z,0.98
2019-04-26T16:08:48.347Z,0.95
2019-04-26T16:09:57.394Z,0.90
2019-04-26T16:11:00.277Z,0.72
2019-04-26T16:12:05.471Z,0.70
2019-04-26T16:13:21.085Z,0.88
2019-04-26T16:14:17.481Z,1.07
2019-04-26T16:15:23.349Z,0.75
2019-04-26T16:16:30.213Z,0.90
2019-04-26T16:17:36.246Z,0.85
2019-04-26T16:18:43.100Z,0.80
2019-04-26T16:19:48.341Z,0.80
2019-04-26T16:20:53.503Z,0.95
2019-04-26T16:21:58.722Z,0.90
2019-04-26T16:23:07.190Z,1.10
2019-04-26T16:24:12.737Z,1.10
2019-04-26T16:25:17.956Z,1.20
2019-04-26T16:26:23.129Z,1.35
2019-04-26T16:27:32.463Z,0.90
2019-04-26T16:28:44.474Z,1.10
2019-04-26T16:30:05.377Z,1.30
2019-04-26T16:31:42.099Z,1.10
2019-04-26T16:33:16.072Z,0.95
2019-04-26T16:34:21.428Z,1.20
2019-04-26T16:35:28.342Z,0.90
2019-04-26T16:36:36.636Z,1.35
2019-04-26T16:37:40.700Z,0.98
2019-04-26T16:38:48.539Z,1.10
2019-04-26T16:39:53.166Z,1.00
2019-04-26T16:40:58.347Z,1.00
2019-04-26T16:42:06.761Z,0.80
2019-04-26T16:43:10.367Z,1.20
2019-04-26T16:44:18.584Z,1.07
2019-04-26T16:45:22.752Z,1.22
2019-04-26T16:46:27.948Z,1.05
2019-04-26T16:47:35.316Z,1.30
2019-04-26T16:48:39.924Z,1.17
2019-04-26T16:49:46.590Z,1.15
2019-04-26T16:50:53.114Z,1.30
2019-04-26T16:52:03.100Z,1.10
2019-04-26T16:53:05.109Z,1.20
2019-04-26T16:54:11.019Z,0.98
2019-04-26T16:55:20.967Z,1.15
2019-04-26T16:56:26.486Z,1.35
2019-04-26T16:57:30.553Z,1.32